createdAt,value
2018-12-13T00:00:27.521Z,12.85
2018-12-13T00:02:55.019Z,12.28
2018-12-13T00:05:22.518Z,14.07
2018-12-13T00:07:49.987Z,14.23
2018-12-13T00:10:17.456Z,13.53
2018-12-13T00:12:44.912Z,12.55
2018-12-13T00:15:12.807Z,14.13
2018-12-13T00:17:40.249Z,13.83
2018-12-13T00:20:07.910Z,19.15
2018-12-13T00:22:35.387Z,18.48
2018-12-13T00:25:02.977Z,17.25
2018-12-13T00:27:30.446Z,19.77
2018-12-13T00:29:57.911Z,14.47
2018-12-13T00:32:25.457Z,16.65
2018-12-13T00:34:52.919Z,14.70
2018-12-13T00:37:20.399Z,16.30
2018-12-13T00:39:47.846Z,17.73
2018-12-13T00:42:15.292Z,15.68
2018-12-13T00:44:42.772Z,14.05
2018-12-13T00:47:10.247Z,16.73
2018-12-13T00:49:37.711Z,18.42
2018-12-13T00:52:05.250Z,18.57
2018-12-13T00:54:33.726Z,15.23
2018-12-13T00:57:01.175Z,15.98
2018-12-13T00:59:28.637Z,16.73
2018-12-13T01:01:56.094Z,16.05
2018-12-13T01:04:23.599Z,14.10
2018-12-13T01:06:51.058Z,20.35
2018-12-13T01:09:18.541Z,18.75
2018-12-13T01:11:46.096Z,20.55
2018-12-13T01:14:13.541Z,16.87
2018-12-13T01:16:41.013Z,17.70
2018-12-13T01:19:08.501Z,18.17
2018-12-13T01:21:36.018Z,18.62
2018-12-13T01:24:03.562Z,18.17
2018-12-13T01:26:31.038Z,17.30
2018-12-13T01:28:58.517Z,17.75
2018-12-13T01:31:25.969Z,16.80
2018-12-13T01:33:53.426Z,17.95
2018-12-13T01:36:20.924Z,19.73
2018-12-13T01:38:49.093Z,16.87
2018-12-13T01:41:16.642Z,17.98
2018-12-13T01:43:44.094Z,17.75
2018-12-13T01:46:11.559Z,18.15
2018-12-13T01:48:39.012Z,14.50
2018-12-13T01:51:06.489Z,21.42
2018-12-13T01:53:33.937Z,16.37
2018-12-13T01:56:01.519Z,14.30
2018-12-13T01:58:29.040Z,15.68
2018-12-13T02:00:56.506Z,14.98
2018-12-13T02:03:23.983Z,16.02
2018-12-13T02:05:51.431Z,17.70
2018-12-13T02:08:18.902Z,19.25
2018-12-13T02:10:46.341Z,15.32
2018-12-13T02:13:13.816Z,19.95
2018-12-13T02:15:41.285Z,20.90
2018-12-13T02:18:08.827Z,18.50
2018-12-13T02:20:37.000Z,16.35
2018-12-13T02:23:04.652Z,17.27
2018-12-13T02:25:32.152Z,14.33
2018-12-13T02:27:59.622Z,16.85
2018-12-13T02:30:27.084Z,18.85
2018-12-13T02:32:54.711Z,19.10
2018-12-13T02:35:22.250Z,20.92
2018-12-13T02:37:49.701Z,17.35
2018-12-13T02:40:17.158Z,18.52
2018-12-13T02:42:44.612Z,19.50
2018-12-13T02:45:12.153Z,21.12
2018-12-13T02:47:39.635Z,20.23
2018-12-13T02:50:07.221Z,17.50
2018-12-13T02:52:34.734Z,20.35
2018-12-13T02:55:02.187Z,19.90
2018-12-13T02:57:29.629Z,23.22
2018-12-13T02:59:57.101Z,22.17
2018-12-13T03:02:24.556Z,17.62
2018-12-13T03:04:52.017Z,18.75
2018-12-13T03:07:19.472Z,20.15
2018-12-13T03:09:47.043Z,18.48
2018-12-13T03:12:14.557Z,16.15
2018-12-13T03:14:42.041Z,21.65
2018-12-13T03:17:09.490Z,21.55
2018-12-13T03:19:36.961Z,22.40
2018-12-13T03:22:04.418Z,20.62
2018-12-13T03:24:32.172Z,17.10
2018-12-13T03:26:59.757Z,21.07
2018-12-13T03:29:27.235Z,19.67
2018-12-13T03:31:55.228Z,19.20
2018-12-13T03:34:22.686Z,17.80
2018-12-13T03:36:50.165Z,22.22
2018-12-13T03:39:17.627Z,20.02
2018-12-13T03:41:45.791Z,16.45
2018-12-13T03:44:13.250Z,18.73
2018-12-13T03:46:40.726Z,17.05
2018-12-13T03:49:08.190Z,17.87
2018-12-13T03:51:36.527Z,17.92
2018-12-13T03:54:04.100Z,19.20
2018-12-13T03:56:31.560Z,17.07
2018-12-13T03:58:59.010Z,14.43
2018-12-13T04:01:26.519Z,16.20
2018-12-13T04:03:53.993Z,22.27
2018-12-13T04:06:21.454Z,13.60
2018-12-13T04:08:48.921Z,14.15
2018-12-13T04:11:16.386Z,16.73
2018-12-13T04:13:43.969Z,14.35
2018-12-13T04:16:11.445Z,16.67
2018-12-13T04:18:38.913Z,15.25
2018-12-13T04:21:06.464Z,19.65
2018-12-13T04:23:34.497Z,16.05
2018-12-13T04:26:01.964Z,16.00
2018-12-13T04:28:29.430Z,18.23
2018-12-13T04:30:56.883Z,16.25
2018-12-13T04:33:24.349Z,14.50
2018-12-13T04:35:51.815Z,15.95
2018-12-13T04:38:19.289Z,18.30
2018-12-13T04:40:46.738Z,23.75
2018-12-13T04:43:14.199Z,14.28
2018-12-13T04:45:41.662Z,16.02
2018-12-13T04:48:09.143Z,14.38
2018-12-13T04:50:36.590Z,18.70
2018-12-13T04:53:04.066Z,14.93
2018-12-13T04:55:31.622Z,22.62
2018-12-13T04:57:59.095Z,16.25
2018-12-13T05:00:26.569Z,17.48
2018-12-13T05:02:54.029Z,21.25
2018-12-13T05:05:21.514Z,14.70
2018-12-13T05:07:48.952Z,16.45
2018-12-13T05:13:34.165Z,22.80
2018-12-13T05:16:01.742Z,15.63
2018-12-13T05:18:29.354Z,19.12
2018-12-13T05:20:56.913Z,14.95
2018-12-13T05:23:24.746Z,18.37
2018-12-13T05:25:52.377Z,14.93
2018-12-13T05:28:19.937Z,19.92
2018-12-13T05:30:47.548Z,14.93
2018-12-13T05:33:15.163Z,15.80
2018-12-13T05:35:42.807Z,16.93
2018-12-13T05:38:11.285Z,21.30
2018-12-13T05:40:38.882Z,16.27
2018-12-13T05:43:06.534Z,14.35
2018-12-13T05:45:34.137Z,18.92
2018-12-13T05:48:01.710Z,16.02
2018-12-13T05:50:29.336Z,16.95
2018-12-13T05:52:56.957Z,17.07
2018-12-13T05:55:24.409Z,18.10
2018-12-13T05:57:51.876Z,16.27
2018-12-13T06:00:19.333Z,18.57
2018-12-13T06:02:46.822Z,14.25
2018-12-13T06:05:14.344Z,20.80
2018-12-13T06:07:41.832Z,17.65
2018-12-13T06:10:09.454Z,19.37
2018-12-13T06:12:36.946Z,16.15
2018-12-13T06:15:05.545Z,18.17
2018-12-13T06:17:33.029Z,20.70
2018-12-13T06:20:00.515Z,18.73
2018-12-13T06:22:27.998Z,18.80
2018-12-13T06:24:55.490Z,20.32
2018-12-13T06:27:23.053Z,20.25
2018-12-13T06:29:50.622Z,19.65
2018-12-13T06:32:18.099Z,17.02
2018-12-13T06:34:45.565Z,24.37
2018-12-13T06:37:13.052Z,19.32
2018-12-13T06:39:40.510Z,21.48
2018-12-13T06:42:07.973Z,15.95
2018-12-13T06:44:35.511Z,20.08
2018-12-13T06:47:02.980Z,21.55
2018-12-13T06:49:30.478Z,22.73
2018-12-13T06:51:57.933Z,21.50
2018-12-13T06:54:25.413Z,25.37
2018-12-13T06:56:52.887Z,22.32
2018-12-13T06:59:20.891Z,22.32
2018-12-13T07:01:48.444Z,18.12
2018-12-13T07:04:15.921Z,23.07
2018-12-13T07:06:43.390Z,22.87
2018-12-13T07:09:10.861Z,23.38
2018-12-13T07:11:38.435Z,24.85
2018-12-13T07:14:06.667Z,27.27
2018-12-13T07:16:34.143Z,23.95
2018-12-13T07:19:01.650Z,25.30
2018-12-13T07:21:29.119Z,22.95
2018-12-13T07:23:56.602Z,21.62
2018-12-13T07:26:24.187Z,22.58
2018-12-13T07:28:51.674Z,30.75
2018-12-13T07:31:19.150Z,27.58
2018-12-13T07:33:46.785Z,19.40
2018-12-13T07:36:14.493Z,32.88
2018-12-13T07:38:41.964Z,26.75
2018-12-13T07:41:09.454Z,27.10
2018-12-13T07:43:36.921Z,22.67
2018-12-13T07:46:21.452Z,22.48
2018-12-13T07:48:48.983Z,27.80
2018-12-13T07:51:16.461Z,31.57
2018-12-13T07:53:44.029Z,27.77
2018-12-13T07:56:11.519Z,26.27
2018-12-13T07:58:39.003Z,23.65
2018-12-13T08:01:06.498Z,28.55
2018-12-13T08:03:33.988Z,24.20
2018-12-13T08:06:01.457Z,32.80
2018-12-13T08:08:28.951Z,23.45
2018-12-13T08:10:56.515Z,27.42
2018-12-13T08:13:24.005Z,23.50
2018-12-13T08:15:51.470Z,27.10
2018-12-13T08:18:18.964Z,31.55
2018-12-13T08:20:46.431Z,25.65
2018-12-13T08:23:13.898Z,30.68
2018-12-13T08:25:41.381Z,32.83
2018-12-13T08:28:08.846Z,29.45
2018-12-13T08:30:36.604Z,30.02
2018-12-13T08:33:04.161Z,28.92
2018-12-13T08:35:32.493Z,28.02
2018-12-13T08:37:59.955Z,31.25
2018-12-13T08:40:27.451Z,28.92
2018-12-13T08:42:54.944Z,30.25
2018-12-13T08:45:22.404Z,32.58
2018-12-13T08:47:49.865Z,24.50
2018-12-13T08:50:17.356Z,31.12
2018-12-13T08:52:44.986Z,35.90
2018-12-13T08:55:12.552Z,28.38
2018-12-13T08:57:40.011Z,32.40
2018-12-13T09:00:07.650Z,26.95
2018-12-13T09:02:35.117Z,29.25
2018-12-13T09:05:03.469Z,32.17
2018-12-13T09:07:30.946Z,24.87
2018-12-13T09:09:58.425Z,26.77
2018-12-13T09:12:25.904Z,31.23
2018-12-13T09:14:53.391Z,35.88
2018-12-13T09:17:21.857Z,33.38
2018-12-13T09:19:49.421Z,33.98
2018-12-13T09:22:16.931Z,32.17
2018-12-13T09:24:44.485Z,34.67
2018-12-13T09:27:11.968Z,31.85
2018-12-13T09:29:39.441Z,26.20
2018-12-13T09:32:06.926Z,27.48
2018-12-13T09:34:34.469Z,27.42
2018-12-13T09:37:01.955Z,29.80
2018-12-13T09:39:29.414Z,33.80
2018-12-13T09:41:56.894Z,30.90
2018-12-13T09:44:24.384Z,25.08
2018-12-13T09:46:51.875Z,28.87
2018-12-13T09:49:19.363Z,35.68
2018-12-13T09:51:46.829Z,27.22
2018-12-13T09:54:14.326Z,27.93
2018-12-13T09:56:41.793Z,30.65
2018-12-13T09:59:09.292Z,31.10
2018-12-13T10:01:36.748Z,29.42
2018-12-13T10:04:04.291Z,30.97
2018-12-13T10:06:31.786Z,38.42
2018-12-13T10:08:59.275Z,27.45
2018-12-13T10:11:26.782Z,36.15
2018-12-13T10:13:54.261Z,33.05
2018-12-13T10:16:21.853Z,29.85
2018-12-13T10:18:49.328Z,33.90
2018-12-13T10:21:16.792Z,35.90
2018-12-13T10:23:44.303Z,37.88
2018-12-13T10:26:11.771Z,32.78
2018-12-13T10:28:39.262Z,34.55
2018-12-13T10:31:06.744Z,39.00
2018-12-13T10:33:34.337Z,32.70
2018-12-13T10:36:01.887Z,30.92
2018-12-13T10:38:29.354Z,28.90
2018-12-13T10:40:56.958Z,33.83
2018-12-13T10:43:24.427Z,34.15
2018-12-13T10:45:51.909Z,37.30
2018-12-13T10:48:19.393Z,35.00
2018-12-13T10:50:46.858Z,40.12
2018-12-13T10:53:14.330Z,38.75
2018-12-13T10:55:41.809Z,37.98
2018-12-13T10:58:09.288Z,35.15
2018-12-13T11:00:39.573Z,33.83
2018-12-13T11:03:22.936Z,42.40
2018-12-13T11:05:50.411Z,39.67
2018-12-13T11:08:17.877Z,34.43
2018-12-13T11:10:45.362Z,36.40
2018-12-13T11:13:12.900Z,37.20
2018-12-13T11:15:40.389Z,38.33
2018-12-13T11:18:08.057Z,39.10
2018-12-13T11:20:35.534Z,33.80
2018-12-13T11:23:03.034Z,35.00
2018-12-13T11:25:30.502Z,34.88
2018-12-13T11:31:08.685Z,34.15
2018-12-13T11:33:36.164Z,32.98
2018-12-13T11:36:03.649Z,31.90
2018-12-13T11:38:31.138Z,29.30
2018-12-13T11:40:58.602Z,32.73
2018-12-13T11:43:26.076Z,30.40
2018-12-13T11:45:53.549Z,31.00
2018-12-13T11:48:21.034Z,30.60
2018-12-13T11:50:48.494Z,34.48
2018-12-13T11:53:15.985Z,20.50
2018-12-13T11:55:43.523Z,21.75
2018-12-13T11:58:11.082Z,23.00
2018-12-13T12:00:38.550Z,26.02
2018-12-13T12:03:06.103Z,23.05
2018-12-13T12:05:33.600Z,26.25
2018-12-13T12:08:01.037Z,21.48
2018-12-13T12:10:28.588Z,19.67
2018-12-13T12:12:56.110Z,23.50
2018-12-13T12:15:23.654Z,22.10
2018-12-13T12:17:51.127Z,24.12
2018-12-13T12:20:18.608Z,23.75
2018-12-13T12:22:46.085Z,20.55
2018-12-13T12:25:13.648Z,24.92
2018-12-13T12:27:41.357Z,25.82
2018-12-13T12:30:09.081Z,23.50
2018-12-13T12:32:36.542Z,24.35
2018-12-13T12:35:04.571Z,22.73
2018-12-13T12:37:32.037Z,20.80
2018-12-13T12:39:59.511Z,23.92
2018-12-13T12:42:27.013Z,26.37
2018-12-13T12:44:54.490Z,22.40
2018-12-13T12:47:21.958Z,21.85
2018-12-13T12:49:49.470Z,26.85
2018-12-13T12:52:16.919Z,23.02
2018-12-13T12:54:44.470Z,26.17
2018-12-13T12:57:13.304Z,20.82
2018-12-13T12:59:40.991Z,24.25
2018-12-13T13:02:08.456Z,25.05
2018-12-13T13:04:35.925Z,25.37
2018-12-13T13:07:03.558Z,23.40
2018-12-13T13:09:31.041Z,22.35
2018-12-13T13:11:58.504Z,21.95
2018-12-13T13:14:25.967Z,22.32
2018-12-13T13:16:53.446Z,21.40
2018-12-13T13:19:20.911Z,25.55
2018-12-13T13:21:48.395Z,21.02
2018-12-13T13:24:15.840Z,30.57
2018-12-13T13:26:43.350Z,24.90
2018-12-13T13:29:10.824Z,26.45
2018-12-13T13:31:38.275Z,21.45
2018-12-13T13:34:05.739Z,21.20
2018-12-13T13:36:33.201Z,21.07
2018-12-13T13:39:00.689Z,23.75
2018-12-13T13:41:28.139Z,25.68
2018-12-13T13:43:55.621Z,22.13
2018-12-13T13:46:23.087Z,25.25
2018-12-13T13:48:50.557Z,23.83
2018-12-13T13:51:18.019Z,22.13
2018-12-13T13:53:45.581Z,26.00
2018-12-13T13:56:13.065Z,22.27
2018-12-13T13:58:40.543Z,23.02
2018-12-13T14:01:08.075Z,25.48
2018-12-13T14:03:36.142Z,25.62
2018-12-13T14:06:03.762Z,20.80
2018-12-13T14:08:31.233Z,29.07
2018-12-13T14:10:58.701Z,24.45
2018-12-13T14:13:26.150Z,23.60
2018-12-13T14:15:53.646Z,25.52
2018-12-13T14:18:21.137Z,22.62
2018-12-13T14:20:48.617Z,22.13
2018-12-13T14:23:16.172Z,21.50
2018-12-13T14:25:44.028Z,18.65
2018-12-13T14:28:11.461Z,21.85
2018-12-13T14:30:38.986Z,27.10
2018-12-13T14:33:06.439Z,25.70
2018-12-13T14:35:33.917Z,23.87
2018-12-13T14:38:01.379Z,23.62
2018-12-13T14:40:28.859Z,24.50
2018-12-13T14:42:56.329Z,20.20
2018-12-13T14:45:23.882Z,20.70
2018-12-13T14:47:51.380Z,19.55
2018-12-13T14:50:18.844Z,21.87
2018-12-13T14:52:46.337Z,18.62
2018-12-13T14:55:13.781Z,22.90
2018-12-13T14:57:41.257Z,20.65
2018-12-13T15:00:09.066Z,28.70
2018-12-13T15:02:36.539Z,24.37
2018-12-13T15:05:04.507Z,20.03
2018-12-13T15:07:32.072Z,25.08
2018-12-13T15:09:59.548Z,23.57
2018-12-13T15:12:27.044Z,23.20
2018-12-13T15:14:54.502Z,24.72
2018-12-13T15:17:22.083Z,22.05
2018-12-13T15:19:49.562Z,17.30
2018-12-13T15:22:17.033Z,22.07
2018-12-13T15:24:44.495Z,19.25
2018-12-13T15:27:11.992Z,20.55
2018-12-13T15:29:39.468Z,22.55
2018-12-13T15:32:07.031Z,26.33
2018-12-13T15:34:34.511Z,26.68
2018-12-13T15:37:02.002Z,23.00
2018-12-13T15:39:29.444Z,19.57
2018-12-13T15:41:56.930Z,22.80
2018-12-13T15:44:25.152Z,22.87
2018-12-13T15:46:52.979Z,16.67
2018-12-13T15:49:21.249Z,24.57
2018-12-13T15:51:48.771Z,30.62
2018-12-13T15:54:16.248Z,24.72
2018-12-13T15:56:43.701Z,20.75
2018-12-13T15:59:11.169Z,25.65
2018-12-13T16:01:38.662Z,29.30
2018-12-13T16:04:06.102Z,23.52
2018-12-13T16:06:33.596Z,24.82
2018-12-13T16:09:01.037Z,25.10
2018-12-13T16:11:28.511Z,20.55
2018-12-13T16:13:55.957Z,18.57
2018-12-13T16:16:24.177Z,18.15
2018-12-13T16:18:51.629Z,24.70
2018-12-13T16:21:19.115Z,22.95
2018-12-13T16:23:46.577Z,21.93
2018-12-13T16:26:14.066Z,23.98
2018-12-13T16:28:41.530Z,15.80
2018-12-13T16:31:09.017Z,21.00
2018-12-13T16:33:36.489Z,26.17
2018-12-13T16:36:03.965Z,27.48
2018-12-13T16:38:31.444Z,24.67
2018-12-13T16:40:58.904Z,22.62
2018-12-13T16:43:26.372Z,17.40
2018-12-13T16:45:53.911Z,28.07
2018-12-13T16:48:21.385Z,20.48
2018-12-13T16:50:48.853Z,22.37
2018-12-13T16:53:16.339Z,22.00
2018-12-13T16:55:43.862Z,22.80
2018-12-13T16:58:11.384Z,25.95
2018-12-13T17:00:38.854Z,22.90
2018-12-13T17:03:18.388Z,22.93
2018-12-13T17:05:45.849Z,26.02
2018-12-13T17:08:14.257Z,25.82
2018-12-13T17:10:41.796Z,25.05
2018-12-13T17:13:09.262Z,28.62
2018-12-13T17:15:36.719Z,24.15
2018-12-13T17:18:04.226Z,24.92
2018-12-13T17:20:31.674Z,23.55
2018-12-13T17:22:59.122Z,19.80
2018-12-13T17:25:26.609Z,21.37
2018-12-13T17:27:54.100Z,23.20
2018-12-13T17:30:21.615Z,24.60
2018-12-13T17:32:49.146Z,24.80
2018-12-13T17:35:16.631Z,29.18
2018-12-13T17:37:44.134Z,17.45
2018-12-13T17:40:11.655Z,24.25
2018-12-13T17:42:39.113Z,25.52
2018-12-13T17:45:06.635Z,23.35
2018-12-13T17:47:34.131Z,26.37
2018-12-13T17:50:01.661Z,25.97
2018-12-13T17:52:29.162Z,23.18
2018-12-13T17:54:56.627Z,23.83
2018-12-13T17:57:24.125Z,24.23
2018-12-13T17:59:51.749Z,27.07
2018-12-13T18:02:19.237Z,23.22
2018-12-13T18:04:46.711Z,30.08
2018-12-13T18:07:14.457Z,24.07
2018-12-13T18:09:41.922Z,27.50
2018-12-13T18:12:09.421Z,26.97
2018-12-13T18:14:36.877Z,23.18
2018-12-13T18:17:04.406Z,25.80
2018-12-13T18:19:31.866Z,31.52
2018-12-13T18:21:59.713Z,25.57
2018-12-13T18:24:27.328Z,25.92
2018-12-13T18:26:54.846Z,25.48
2018-12-13T18:29:23.054Z,25.10
2018-12-13T18:31:50.502Z,25.93
2018-12-13T18:34:18.019Z,28.02
2018-12-13T18:36:45.475Z,28.38
2018-12-13T18:39:12.961Z,37.73
2018-12-13T18:41:40.490Z,24.50
2018-12-13T18:44:08.217Z,30.32
2018-12-13T18:46:35.690Z,29.92
2018-12-13T18:49:03.225Z,28.35
2018-12-13T18:51:30.711Z,29.02
2018-12-13T18:53:58.183Z,37.58
2018-12-13T18:56:25.740Z,30.00
2018-12-13T18:58:53.198Z,31.12
2018-12-13T19:01:20.670Z,29.37
2018-12-13T19:03:48.134Z,28.75
2018-12-13T19:06:15.653Z,26.23
2018-12-13T19:08:43.131Z,33.25
2018-12-13T19:11:10.776Z,27.65
2018-12-13T19:13:38.258Z,27.65
2018-12-13T19:16:06.326Z,34.73
2018-12-13T19:18:33.782Z,30.60
2018-12-13T19:21:01.273Z,30.23
2018-12-13T19:23:28.731Z,37.20
2018-12-13T19:25:56.331Z,33.15
2018-12-13T19:28:23.767Z,28.45
2018-12-13T19:30:51.258Z,34.50
2018-12-13T19:33:18.778Z,29.35
2018-12-13T19:35:46.280Z,33.67
2018-12-13T19:38:13.826Z,28.07
2018-12-13T19:40:41.362Z,30.10
2018-12-13T19:43:08.854Z,31.75
2018-12-13T19:45:36.322Z,32.20
2018-12-13T19:48:03.799Z,33.25
2018-12-13T19:50:31.374Z,35.45
2018-12-13T19:52:58.858Z,31.80
2018-12-13T19:55:26.322Z,41.30
2018-12-13T19:57:53.826Z,39.83
2018-12-13T20:00:21.292Z,42.33
2018-12-13T20:02:48.767Z,34.10
2018-12-13T20:05:16.241Z,39.55
2018-12-13T20:07:43.738Z,35.80
2018-12-13T20:10:11.220Z,45.70
2018-12-13T20:12:38.899Z,40.15
2018-12-13T20:15:06.526Z,36.45
2018-12-13T20:17:34.016Z,39.90
2018-12-13T20:20:01.506Z,39.00
2018-12-13T20:22:28.954Z,38.38
2018-12-13T20:24:56.431Z,36.45
2018-12-13T20:27:24.053Z,36.85
2018-12-13T20:29:51.562Z,36.68
2018-12-13T20:32:19.479Z,37.10
2018-12-13T20:34:47.206Z,35.05
2018-12-13T20:37:14.717Z,39.53
2018-12-13T20:39:42.249Z,38.58
2018-12-13T20:42:09.749Z,44.60
2018-12-13T20:44:37.230Z,34.90
2018-12-13T20:47:04.699Z,46.37
2018-12-13T20:49:32.157Z,36.68
2018-12-13T20:51:59.632Z,42.25
2018-12-13T20:54:27.111Z,36.80
2018-12-13T20:56:54.602Z,41.45
2018-12-13T21:01:51.515Z,41.75
2018-12-13T21:04:19.063Z,51.65
2018-12-13T21:06:48.505Z,47.03
2018-12-13T21:09:15.950Z,42.27
2018-12-13T21:11:43.443Z,35.43
2018-12-13T21:14:10.889Z,39.63
2018-12-13T21:16:38.389Z,36.05
2018-12-13T21:19:05.886Z,38.30
2018-12-13T21:21:33.360Z,38.25
2018-12-13T21:24:00.823Z,42.62
2018-12-13T21:26:28.306Z,38.15
2018-12-13T21:28:55.762Z,42.83
2018-12-13T21:31:23.240Z,46.68
2018-12-13T21:33:50.761Z,40.30
2018-12-13T21:36:18.233Z,43.73
2018-12-13T21:38:45.699Z,41.58
2018-12-13T21:41:13.963Z,45.98
2018-12-13T21:43:41.435Z,39.10
2018-12-13T21:46:08.936Z,40.83
2018-12-13T21:48:36.421Z,39.63
2018-12-13T21:51:03.870Z,53.30
2018-12-13T21:53:31.499Z,41.33
2018-12-13T21:55:58.945Z,47.15
2018-12-13T21:58:26.430Z,37.42
2018-12-13T22:00:53.922Z,52.08
2018-12-13T22:03:21.418Z,41.45
2018-12-13T22:05:48.893Z,43.58
2018-12-13T22:08:16.378Z,48.55
2018-12-13T22:10:43.827Z,40.92
2018-12-13T22:13:11.301Z,46.80
2018-12-13T22:15:38.759Z,43.80
2018-12-13T22:18:06.235Z,45.10
2018-12-13T22:20:33.698Z,44.75
2018-12-13T22:23:01.177Z,46.90
2018-12-13T22:25:28.643Z,45.70
2018-12-13T22:27:56.102Z,43.35
2018-12-13T22:30:23.587Z,43.83
2018-12-13T22:32:51.041Z,39.10
2018-12-13T22:35:18.523Z,44.88
2018-12-13T22:37:46.033Z,43.85
2018-12-13T22:40:13.537Z,36.15
2018-12-13T22:42:40.990Z,40.65
2018-12-13T22:45:08.530Z,43.45
2018-12-13T22:47:36.149Z,37.63
2018-12-13T22:50:03.913Z,41.68
2018-12-13T22:52:31.378Z,40.03
2018-12-13T22:54:58.867Z,37.38
2018-12-13T22:57:26.314Z,48.05
2018-12-13T22:59:53.793Z,41.40
2018-12-13T23:02:21.245Z,38.63
2018-12-13T23:04:48.704Z,37.95
2018-12-13T23:07:16.190Z,42.95
2018-12-13T23:09:43.722Z,38.20
2018-12-13T23:12:11.205Z,42.67
2018-12-13T23:14:39.002Z,39.70
2018-12-13T23:17:06.867Z,37.15
2018-12-13T23:19:34.316Z,37.55
2018-12-13T23:22:01.897Z,43.33
2018-12-13T23:24:29.436Z,34.73
2018-12-13T23:26:56.918Z,37.65
2018-12-13T23:29:24.373Z,40.60
2018-12-13T23:31:51.839Z,31.68
2018-12-13T23:34:19.862Z,43.83
2018-12-13T23:36:47.318Z,33.75
2018-12-13T23:39:14.780Z,43.40
2018-12-13T23:41:42.345Z,38.15
2018-12-13T23:44:09.840Z,35.25
2018-12-13T23:46:37.286Z,41.50
2018-12-13T23:49:04.840Z,42.78
2018-12-13T23:51:32.346Z,36.75
2018-12-13T23:53:59.818Z,35.43
2018-12-13T23:56:27.277Z,40.10
2018-12-13T23:58:54.766Z,34.43
